Margaret F. Cooper — WDB9825 — position and weather

sailwx.info

Track history (hours):
 
Tides and Currents Weather Stations Pressure Air Temp Water Temp Dewpoint Dewpoint Depression Visibility Wind Speed Wind Dir Waves Ship Positions

Margaret F. Cooper

Owner: CRESCENT TOWING & SALVAGE CO INC, New Orleans, LA. More information available from US FCC via Universal Licensing System and Coast Guard Vessel Documentation Center.

Last reported at 2015-May-18 05:24 UTC. Time now 2015-May-25 05:22 UTC.
Position N 29°55' W 089°57'.

Length 32 m.

Type: Tug. MMSI: 366983480.

Date/timePositionNaut miles runAvg speedWind from/ knotsBaromVisibWave heightAir tempDewpointWater temp
2015-May-18 05:24N 29°55' W 089°57'5 5.8
2015-May-18 04:28N 29°57' W 090°03'0 0.0
2015-May-18 03:32N 29°57' W 090°03'0 0.0
2015-May-18 02:13N 29°57' W 090°03'0 0.0
2015-May-18 01:33N 29°57' W 090°03'0 0.0
2015-May-18 00:30N 29°57' W 090°03'0 0.0
2015-May-17 23:29N 29°57' W 090°03'0 0.0
2015-May-17 22:33N 29°57' W 090°03'0 0.0
2015-May-17 21:23N 29°57' W 090°03'67 1.3
2015-May-15 19:21N 30°22' W 091°14'5 6.8
2015-May-15 18:33N 30°27' W 091°12'0 0.0
2015-May-15 17:33N 30°27' W 091°12'0 0.0
2015-May-15 16:33N 30°27' W 091°12'0 0.0
2015-May-15 15:33N 30°27' W 091°12'0 0.0
2015-May-15 14:33N 30°27' W 091°12'1 1.5
2015-May-15 13:33N 30°29' W 091°12'0 0.0
2015-May-15 12:33N 30°29' W 091°12'2 1.5
2015-May-15 11:33N 30°27' W 091°12'0 0.1
2015-May-15 10:33N 30°27' W 091°12'0 0.0
2015-May-15 09:33N 30°27' W 091°12'0 0.0
2015-May-15 08:33N 30°27' W 091°12'0 0.0
2015-May-15 07:33N 30°27' W 091°12'0 0.0
2015-May-15 06:33N 30°27' W 091°12'0 0.0
2015-May-15 05:33N 30°27' W 091°12'0 0.0
2015-May-15 04:33N 30°27' W 091°12'0 0.0
2015-May-15 03:33N 30°27' W 091°12'0 0.0
2015-May-15 02:33N 30°27' W 091°12'0 0.0
2015-May-15 01:33N 30°27' W 091°12'0 0.0
2015-May-15 00:33N 30°27' W 091°12'0 0.0
2015-May-14 23:33N 30°27' W 091°12'0 0.0
2015-May-14 22:33N 30°27' W 091°12'0 0.0
2015-May-14 21:33N 30°27' W 091°12'0 0.0
2015-May-14 20:33N 30°27' W 091°12'0 0.0
2015-May-14 19:31N 30°27' W 091°12'0 0.0
2015-May-14 18:33N 30°27' W 091°12'0 0.0
2015-May-14 17:33N 30°27' W 091°12'0 0.0
2015-May-14 16:33N 30°27' W 091°12'0 0.0
2015-May-14 15:33N 30°27' W 091°12'0 0.0
2015-May-14 14:33N 30°27' W 091°12'4 3.6
2015-May-14 13:33N 30°24' W 091°13'2 1.6
2015-May-14 12:33N 30°22' W 091°14'1 0.3
2015-May-14 07:33N 30°23' W 091°13'6 5.8
2015-May-14 06:34N 30°29' W 091°12'1 0.5
2015-May-14 05:33N 30°29' W 091°12'0 0.5
2015-May-14 04:33N 30°29' W 091°12'2 1.8
2015-May-14 03:33N 30°27' W 091°12'0 0.0
2015-May-14 02:32N 30°27' W 091°12'0 0.0
2015-May-14 01:33N 30°27' W 091°12'0 0.0
2015-May-14 00:33N 30°27' W 091°12'0 0.0
2015-May-13 23:26N 30°27' W 091°12'0 0.0
2015-May-13 22:32N 30°27' W 091°12'0 0.0
2015-May-13 21:33N 30°27' W 091°12'1 0.7
2015-May-13 20:33N 30°27' W 091°12'0 0.0
2015-May-13 19:33N 30°27' W 091°12'0 0.0
2015-May-13 18:33N 30°27' W 091°12'0 0.0
2015-May-13 17:33N 30°27' W 091°12'0 0.0
2015-May-13 16:33N 30°27' W 091°12'0 0.0
2015-May-13 15:34N 30°27' W 091°12'0 0.0
2015-May-13 14:33N 30°27' W 091°12'0 0.0
2015-May-13 13:33N 30°27' W 091°12'0 0.0
2015-May-13 12:33N 30°27' W 091°12'0 0.0
2015-May-13 11:33N 30°27' W 091°12'0 0.0
2015-May-13 10:33N 30°27' W 091°12'0 0.0
2015-May-13 09:33N 30°27' W 091°12'0 0.0
2015-May-13 08:33N 30°27' W 091°12'0 0.0
2015-May-13 07:33N 30°27' W 091°12'0 0.0
2015-May-13 06:33N 30°27' W 091°12'0 0.0
2015-May-13 05:33N 30°27' W 091°12'0 0.0
2015-May-13 04:33N 30°27' W 091°12'0 0.0
2015-May-13 03:33N 30°27' W 091°12'0 0.0
2015-May-13 02:33N 30°27' W 091°12'0 0.0
2015-May-13 01:33N 30°27' W 091°12'1 0.7
2015-May-13 00:33N 30°27' W 091°12'0 0.0
2015-May-12 23:33N 30°27' W 091°12'0 0.0
2015-May-12 22:33N 30°27' W 091°12'0 0.0
2015-May-12 21:33N 30°27' W 091°12'0 0.0
2015-May-12 20:33N 30°27' W 091°12'0 0.0
2015-May-12 19:33N 30°27' W 091°12'0 0.0
2015-May-12 18:28N 30°27' W 091°12'0 0.0
2015-May-12 17:33N 30°27' W 091°12'0 0.0
2015-May-12 16:33N 30°27' W 091°12'0 0.0
2015-May-12 15:29N 30°27' W 091°12'0 0.0
2015-May-12 14:33N 30°27' W 091°12'0 0.0
2015-May-12 13:31N 30°27' W 091°12'0 0.0
2015-May-12 12:34N 30°27' W 091°12'1 1.4
2015-May-12 11:33N 30°29' W 091°12'1 1.4
2015-May-12 10:33N 30°27' W 091°12'0 0.0
2015-May-12 09:33N 30°27' W 091°12'0 0.0
2015-May-12 08:33N 30°27' W 091°12'0 0.0
2015-May-12 07:33N 30°27' W 091°12'0 0.0
2015-May-12 06:33N 30°27' W 091°12'0 0.0
2015-May-12 05:33N 30°27' W 091°12'0 0.0
2015-May-12 04:33N 30°27' W 091°12'0 0.0
2015-May-12 03:34N 30°27' W 091°12'0 0.0
2015-May-12 02:33N 30°27' W 091°12'0 0.0
2015-May-12 01:33N 30°27' W 091°12'0 0.0
2015-May-12 00:34N 30°27' W 091°12'2 1.9
2015-May-11 23:33N 30°25' W 091°12'1 1.0
2015-May-11 22:33N 30°24' W 091°12'4 3.9
2015-May-11 21:25N 30°21' W 091°10'  
Track history (hours):
 
Tides and Currents Weather Stations Pressure Air Temp Water Temp Dewpoint Dewpoint Depression Visibility Wind Speed Wind Dir Waves Ship Positions

Margaret F. Cooper

Owner: CRESCENT TOWING & SALVAGE CO INC, New Orleans, LA. More information available from US FCC via Universal Licensing System and Coast Guard Vessel Documentation Center.

Last reported at 2015-May-18 05:24 UTC. Time now 2015-May-25 05:22 UTC.
Position N 29°55' W 089°57'.

Length 32 m.

Type: Tug. MMSI: 366983480.

Date/timePositionNaut miles runAvg speedWind from/ knotsBaromVisibWave heightAir tempDewpointWater temp
2015-May-18 05:24N 29°55' W 089°57'5 5.8
2015-May-18 04:28N 29°57' W 090°03'0 0.0
2015-May-18 03:32N 29°57' W 090°03'0 0.0
2015-May-18 02:13N 29°57' W 090°03'0 0.0
2015-May-18 01:33N 29°57' W 090°03'0 0.0
2015-May-18 00:30N 29°57' W 090°03'0 0.0
2015-May-17 23:29N 29°57' W 090°03'0 0.0
2015-May-17 22:33N 29°57' W 090°03'0 0.0
2015-May-17 21:23N 29°57' W 090°03'67 1.3
2015-May-15 19:21N 30°22' W 091°14'5 6.8
2015-May-15 18:33N 30°27' W 091°12'0 0.0
2015-May-15 17:33N 30°27' W 091°12'0 0.0
2015-May-15 16:33N 30°27' W 091°12'0 0.0
2015-May-15 15:33N 30°27' W 091°12'0 0.0
2015-May-15 14:33N 30°27' W 091°12'1 1.5
2015-May-15 13:33N 30°29' W 091°12'0 0.0
2015-May-15 12:33N 30°29' W 091°12'2 1.5
2015-May-15 11:33N 30°27' W 091°12'0 0.1
2015-May-15 10:33N 30°27' W 091°12'0 0.0
2015-May-15 09:33N 30°27' W 091°12'0 0.0
2015-May-15 08:33N 30°27' W 091°12'0 0.0
2015-May-15 07:33N 30°27' W 091°12'0 0.0
2015-May-15 06:33N 30°27' W 091°12'0 0.0
2015-May-15 05:33N 30°27' W 091°12'0 0.0
2015-May-15 04:33N 30°27' W 091°12'0 0.0
2015-May-15 03:33N 30°27' W 091°12'0 0.0
2015-May-15 02:33N 30°27' W 091°12'0 0.0
2015-May-15 01:33N 30°27' W 091°12'0 0.0
2015-May-15 00:33N 30°27' W 091°12'0 0.0
2015-May-14 23:33N 30°27' W 091°12'0 0.0
2015-May-14 22:33N 30°27' W 091°12'0 0.0
2015-May-14 21:33N 30°27' W 091°12'0 0.0
2015-May-14 20:33N 30°27' W 091°12'0 0.0
2015-May-14 19:31N 30°27' W 091°12'0 0.0
2015-May-14 18:33N 30°27' W 091°12'0 0.0
2015-May-14 17:33N 30°27' W 091°12'0 0.0
2015-May-14 16:33N 30°27' W 091°12'0 0.0
2015-May-14 15:33N 30°27' W 091°12'0 0.0
2015-May-14 14:33N 30°27' W 091°12'4 3.6
2015-May-14 13:33N 30°24' W 091°13'2 1.6
2015-May-14 12:33N 30°22' W 091°14'1 0.3
2015-May-14 07:33N 30°23' W 091°13'6 5.8
2015-May-14 06:34N 30°29' W 091°12'1 0.5
2015-May-14 05:33N 30°29' W 091°12'0 0.5
2015-May-14 04:33N 30°29' W 091°12'2 1.8
2015-May-14 03:33N 30°27' W 091°12'0 0.0
2015-May-14 02:32N 30°27' W 091°12'0 0.0
2015-May-14 01:33N 30°27' W 091°12'0 0.0
2015-May-14 00:33N 30°27' W 091°12'0 0.0
2015-May-13 23:26N 30°27' W 091°12'0 0.0
2015-May-13 22:32N 30°27' W 091°12'0 0.0
2015-May-13 21:33N 30°27' W 091°12'1 0.7
2015-May-13 20:33N 30°27' W 091°12'0 0.0
2015-May-13 19:33N 30°27' W 091°12'0 0.0
2015-May-13 18:33N 30°27' W 091°12'0 0.0
2015-May-13 17:33N 30°27' W 091°12'0 0.0
2015-May-13 16:33N 30°27' W 091°12'0 0.0
2015-May-13 15:34N 30°27' W 091°12'0 0.0
2015-May-13 14:33N 30°27' W 091°12'0 0.0
2015-May-13 13:33N 30°27' W 091°12'0 0.0
2015-May-13 12:33N 30°27' W 091°12'0 0.0
2015-May-13 11:33N 30°27' W 091°12'0 0.0
2015-May-13 10:33N 30°27' W 091°12'0 0.0
2015-May-13 09:33N 30°27' W 091°12'0 0.0
2015-May-13 08:33N 30°27' W 091°12'0 0.0
2015-May-13 07:33N 30°27' W 091°12'0 0.0
2015-May-13 06:33N 30°27' W 091°12'0 0.0
2015-May-13 05:33N 30°27' W 091°12'0 0.0
2015-May-13 04:33N 30°27' W 091°12'0 0.0
2015-May-13 03:33N 30°27' W 091°12'0 0.0
2015-May-13 02:33N 30°27' W 091°12'0 0.0
2015-May-13 01:33N 30°27' W 091°12'1 0.7
2015-May-13 00:33N 30°27' W 091°12'0 0.0
2015-May-12 23:33N 30°27' W 091°12'0 0.0
2015-May-12 22:33N 30°27' W 091°12'0 0.0
2015-May-12 21:33N 30°27' W 091°12'0 0.0
2015-May-12 20:33N 30°27' W 091°12'0 0.0
2015-May-12 19:33N 30°27' W 091°12'0 0.0
2015-May-12 18:28N 30°27' W 091°12'0 0.0
2015-May-12 17:33N 30°27' W 091°12'0 0.0
2015-May-12 16:33N 30°27' W 091°12'0 0.0
2015-May-12 15:29N 30°27' W 091°12'0 0.0
2015-May-12 14:33N 30°27' W 091°12'0 0.0
2015-May-12 13:31N 30°27' W 091°12'0 0.0
2015-May-12 12:34N 30°27' W 091°12'1 1.4
2015-May-12 11:33N 30°29' W 091°12'1 1.4
2015-May-12 10:33N 30°27' W 091°12'0 0.0
2015-May-12 09:33N 30°27' W 091°12'0 0.0
2015-May-12 08:33N 30°27' W 091°12'0 0.0
2015-May-12 07:33N 30°27' W 091°12'0 0.0
2015-May-12 06:33N 30°27' W 091°12'0 0.0
2015-May-12 05:33N 30°27' W 091°12'0 0.0
2015-May-12 04:33N 30°27' W 091°12'0 0.0
2015-May-12 03:34N 30°27' W 091°12'0 0.0
2015-May-12 02:33N 30°27' W 091°12'0 0.0
2015-May-12 01:33N 30°27' W 091°12'0 0.0
2015-May-12 00:34N 30°27' W 091°12'2 1.9
2015-May-11 23:33N 30°25' W 091°12'1 1.0
2015-May-11 22:33N 30°24' W 091°12'4 3.9
2015-May-11 21:25N 30°21' W 091°10'  

Dump ship's entire track history